createdAt,value
2019-03-19T00:01:48.996Z,13.90
2019-03-19T00:04:36.444Z,12.80
2019-03-19T00:07:23.856Z,14.30
2019-03-19T00:10:11.866Z,13.13
2019-03-19T00:12:59.512Z,13.53
2019-03-19T00:15:47.189Z,13.17
2019-03-19T00:18:34.576Z,12.60
2019-03-19T00:21:22.043Z,12.57
2019-03-19T00:24:09.484Z,13.07
2019-03-19T00:26:57.098Z,12.37
2019-03-19T00:29:44.944Z,14.70
2019-03-19T00:32:32.499Z,13.63
2019-03-19T00:35:20.153Z,15.43
2019-03-19T00:38:07.729Z,12.00
2019-03-19T00:40:55.481Z,12.97
2019-03-19T00:43:43.241Z,13.03
2019-03-19T00:46:30.950Z,14.30
2019-03-19T00:49:18.537Z,13.03
2019-03-19T00:52:06.048Z,14.07
2019-03-19T00:54:53.488Z,14.27
2019-03-19T00:57:41.164Z,12.23
2019-03-19T01:00:28.988Z,15.97
2019-03-19T01:03:16.606Z,13.50
2019-03-19T01:06:04.073Z,12.43
2019-03-19T01:08:51.684Z,11.93
2019-03-19T01:11:39.236Z,13.43
2019-03-19T01:14:26.644Z,13.23
2019-03-19T01:17:13.986Z,14.40
2019-03-19T01:20:01.634Z,12.03
2019-03-19T01:22:48.990Z,13.20
2019-03-19T01:25:36.516Z,15.07
2019-03-19T01:28:23.949Z,14.70
2019-03-19T01:31:11.476Z,15.07
2019-03-19T01:33:59.134Z,13.53
2019-03-19T01:36:46.852Z,13.67
2019-03-19T01:39:34.496Z,12.27
2019-03-19T01:42:22.352Z,11.87
2019-03-19T01:45:11.265Z,14.07
2019-03-19T01:47:58.656Z,14.37
2019-03-19T01:50:46.280Z,13.80
2019-03-19T01:53:33.764Z,13.83
2019-03-19T01:56:21.197Z,14.40
2019-03-19T01:59:08.851Z,14.67
2019-03-19T02:01:56.652Z,13.87
2019-03-19T02:04:44.572Z,14.17
2019-03-19T02:07:32.176Z,15.60
2019-03-19T02:10:19.649Z,12.97
2019-03-19T02:13:07.426Z,14.17
2019-03-19T02:15:54.759Z,11.73
2019-03-19T02:18:42.197Z,11.83
2019-03-19T02:21:29.789Z,12.37
2019-03-19T02:24:17.372Z,13.30
2019-03-19T02:27:04.838Z,13.43
2019-03-19T02:29:52.291Z,9.60
2019-03-19T02:32:40.065Z,8.53
2019-03-19T02:35:27.619Z,13.30
2019-03-19T02:38:15.301Z,11.17
2019-03-19T02:41:02.928Z,9.30
2019-03-19T02:43:50.476Z,11.63
2019-03-19T02:46:37.900Z,10.87
2019-03-19T02:49:25.280Z,10.80
2019-03-19T02:52:12.916Z,12.27
2019-03-19T02:55:00.430Z,10.30
2019-03-19T02:57:48.207Z,11.87
2019-03-19T03:00:35.676Z,14.97
2019-03-19T03:03:23.529Z,9.63
2019-03-19T03:06:11.219Z,8.27
2019-03-19T03:08:58.581Z,15.27
2019-03-19T03:11:46.373Z,9.93
2019-03-19T03:14:34.011Z,10.63
2019-03-19T03:17:21.644Z,9.67
2019-03-19T03:20:11.551Z,9.77
2019-03-19T03:22:59.076Z,10.40
2019-03-19T03:25:46.834Z,9.47
2019-03-19T03:28:34.204Z,9.27
2019-03-19T03:31:21.789Z,9.70
2019-03-19T03:34:09.249Z,9.17
2019-03-19T03:36:56.826Z,9.97
2019-03-19T03:39:44.374Z,10.17
2019-03-19T03:42:31.997Z,8.87
2019-03-19T03:45:19.950Z,9.90
2019-03-19T03:48:07.329Z,8.73
2019-03-19T03:50:54.723Z,9.17
2019-03-19T03:53:42.354Z,9.93
2019-03-19T03:56:30.162Z,10.63
2019-03-19T03:59:17.601Z,7.90
2019-03-19T04:02:05.058Z,10.10
2019-03-19T04:04:52.801Z,12.57
2019-03-19T04:07:40.420Z,12.03
2019-03-19T04:10:27.738Z,12.73
2019-03-19T04:13:15.409Z,11.30
2019-03-19T04:16:03.165Z,12.77
2019-03-19T04:18:50.605Z,14.30
2019-03-19T04:21:38.210Z,11.97
2019-03-19T04:24:25.973Z,13.10
2019-03-19T04:27:16.188Z,15.47
2019-03-19T04:30:02.897Z,15.17
2019-03-19T04:32:50.564Z,12.23
2019-03-19T04:35:38.239Z,13.73
2019-03-19T04:38:26.078Z,11.93
2019-03-19T04:41:13.840Z,16.03
2019-03-19T04:44:01.549Z,14.00
2019-03-19T04:46:49.182Z,13.50
2019-03-19T04:49:36.724Z,15.67
2019-03-19T04:52:24.460Z,14.03
2019-03-19T04:55:13.241Z,15.53
2019-03-19T04:58:00.646Z,15.03
2019-03-19T05:00:48.432Z,16.23
2019-03-19T05:03:36.102Z,13.47
2019-03-19T05:06:23.667Z,14.13
2019-03-19T05:09:11.385Z,15.67
2019-03-19T05:11:58.780Z,13.90
2019-03-19T05:14:46.514Z,15.57
2019-03-19T05:17:34.081Z,15.30
2019-03-19T05:20:21.813Z,11.73
2019-03-19T05:23:09.608Z,12.03
2019-03-19T05:25:57.003Z,12.50
2019-03-19T05:28:44.716Z,11.73
2019-03-19T05:31:32.399Z,16.00
2019-03-19T05:34:20.106Z,15.20
2019-03-19T05:37:07.685Z,15.57
2019-03-19T05:39:55.162Z,15.47
2019-03-19T05:42:42.733Z,14.97
2019-03-19T05:45:30.098Z,14.43
2019-03-19T05:48:17.560Z,11.83
2019-03-19T05:51:05.036Z,15.23
2019-03-19T05:53:52.685Z,13.40
2019-03-19T05:56:40.221Z,13.23
2019-03-19T05:59:27.873Z,11.73
2019-03-19T06:02:15.736Z,13.37
2019-03-19T06:05:03.385Z,11.07
2019-03-19T06:07:50.752Z,9.87
2019-03-19T06:10:38.371Z,10.47
2019-03-19T06:13:26.125Z,9.70
2019-03-19T06:16:13.708Z,13.33
2019-03-19T06:19:01.205Z,10.97
2019-03-19T06:21:48.666Z,12.60
2019-03-19T06:24:36.229Z,13.00
2019-03-19T06:27:23.903Z,16.63
2019-03-19T06:30:21.599Z,8.77
2019-03-19T06:33:08.958Z,10.60
2019-03-19T06:35:56.584Z,10.63
2019-03-19T06:38:44.345Z,8.87
2019-03-19T06:41:31.905Z,17.40
2019-03-19T06:44:19.310Z,26.93
2019-03-19T06:47:06.936Z,16.23
2019-03-19T06:49:54.840Z,32.27
2019-03-19T06:52:42.545Z,32.03
2019-03-19T06:55:30.002Z,32.70
2019-03-19T06:58:17.493Z,36.10
2019-03-19T07:01:05.181Z,26.00
2019-03-19T07:03:52.845Z,37.80
2019-03-19T07:06:40.255Z,24.13
2019-03-19T07:09:28.004Z,40.70
2019-03-19T07:12:15.308Z,34.00
2019-03-19T07:15:02.737Z,22.13
2019-03-19T07:17:50.070Z,20.00
2019-03-19T07:20:37.877Z,29.27
2019-03-19T07:23:25.356Z,20.07
2019-03-19T07:26:13.071Z,19.87
2019-03-19T07:29:00.714Z,20.00
2019-03-19T07:31:48.129Z,20.00
2019-03-19T07:34:35.775Z,18.93
2019-03-19T07:37:23.515Z,23.87
2019-03-19T07:40:14.105Z,18.93
2019-03-19T07:43:01.813Z,17.00
2019-03-19T07:45:49.317Z,16.63
2019-03-19T07:48:37.045Z,20.57
2019-03-19T07:51:24.545Z,21.07
2019-03-19T07:54:12.157Z,14.13
2019-03-19T07:56:59.884Z,17.37
2019-03-19T07:59:47.595Z,11.97
2019-03-19T08:02:35.391Z,11.23
2019-03-19T08:05:32.671Z,12.03
2019-03-19T08:08:12.153Z,8.87
2019-03-19T08:10:59.754Z,11.50
2019-03-19T08:13:47.556Z,10.13
2019-03-19T08:16:35.189Z,8.83
2019-03-19T08:19:22.570Z,11.50
2019-03-19T08:22:10.253Z,11.83
2019-03-19T08:24:58.088Z,12.63
2019-03-19T08:27:45.678Z,12.97
2019-03-19T08:30:33.290Z,11.40
2019-03-19T08:33:21.224Z,14.57
2019-03-19T08:36:09.677Z,13.07
2019-03-19T08:38:57.286Z,12.57
2019-03-19T08:41:44.599Z,12.70
2019-03-19T08:44:32.283Z,14.77
2019-03-19T08:47:19.616Z,12.93
2019-03-19T08:50:12.901Z,13.27
2019-03-19T08:53:00.602Z,12.47
2019-03-19T08:55:48.037Z,10.70
2019-03-19T08:58:35.669Z,13.90
2019-03-19T09:01:23.350Z,14.73
2019-03-19T09:04:10.789Z,12.63
2019-03-19T09:06:58.457Z,13.00
2019-03-19T09:09:46.013Z,12.53
2019-03-19T09:12:33.466Z,13.60
2019-03-19T09:15:30.036Z,14.47
2019-03-19T09:18:17.710Z,14.80
2019-03-19T09:21:05.309Z,11.27
2019-03-19T09:23:52.671Z,12.63
2019-03-19T09:26:40.522Z,14.57
2019-03-19T09:29:27.912Z,12.37
2019-03-19T09:32:15.449Z,13.13
2019-03-19T09:35:02.836Z,15.33
2019-03-19T09:37:58.421Z,13.23
2019-03-19T09:40:39.589Z,12.77
2019-03-19T09:43:27.196Z,11.40
2019-03-19T09:46:14.948Z,13.00
2019-03-19T09:49:02.551Z,8.57
2019-03-19T09:51:50.204Z,11.40
2019-03-19T09:54:37.949Z,10.03
2019-03-19T09:57:25.475Z,9.63
2019-03-19T10:00:18.846Z,10.13
2019-03-19T10:03:06.457Z,13.20
2019-03-19T10:05:53.912Z,11.77
2019-03-19T10:08:41.587Z,11.43
2019-03-19T10:11:29.147Z,14.63
2019-03-19T10:14:17.494Z,10.63
2019-03-19T10:17:05.601Z,11.97
2019-03-19T10:19:53.149Z,12.13
2019-03-19T10:22:40.950Z,11.07
2019-03-19T10:25:28.330Z,8.53
2019-03-19T10:28:15.777Z,9.77
2019-03-19T10:31:03.433Z,10.73
2019-03-19T10:33:50.888Z,8.30
2019-03-19T10:36:38.595Z,8.80
2019-03-19T10:39:25.966Z,8.97
2019-03-19T10:42:13.818Z,9.97
2019-03-19T10:45:01.217Z,9.83
2019-03-19T10:47:48.693Z,11.23
2019-03-19T10:50:36.096Z,9.93
2019-03-19T10:53:23.582Z,9.67
2019-03-19T10:56:11.209Z,9.40
2019-03-19T10:58:58.873Z,8.67
2019-03-19T11:01:46.289Z,9.47
2019-03-19T11:04:33.995Z,7.10
2019-03-19T11:07:21.390Z,10.00
2019-03-19T11:10:10.702Z,6.73
2019-03-19T11:12:58.364Z,7.63
2019-03-19T11:15:45.870Z,10.27
2019-03-19T11:18:33.588Z,8.77
2019-03-19T11:21:21.155Z,9.03
2019-03-19T11:24:08.954Z,7.47
2019-03-19T11:26:56.364Z,7.70
2019-03-19T11:29:43.916Z,10.07
2019-03-19T11:32:31.609Z,11.20
2019-03-19T11:35:19.457Z,8.13
2019-03-19T11:38:06.809Z,8.83
2019-03-19T11:40:54.199Z,9.77
2019-03-19T11:43:41.860Z,8.57
2019-03-19T11:46:29.304Z,8.90
2019-03-19T11:49:17.002Z,7.97
2019-03-19T11:52:05.066Z,8.50
2019-03-19T11:54:52.500Z,9.13
2019-03-19T11:57:40.192Z,5.67
2019-03-19T12:00:48.204Z,8.07
2019-03-19T12:03:35.914Z,5.40
2019-03-19T12:06:23.391Z,7.20
2019-03-19T12:09:11.181Z,7.43
2019-03-19T12:11:58.801Z,8.10
2019-03-19T12:14:47.383Z,6.83
2019-03-19T12:17:35.060Z,5.60
2019-03-19T12:20:22.666Z,4.93
2019-03-19T12:23:10.273Z,10.40
2019-03-19T12:25:57.897Z,6.40
2019-03-19T12:28:45.359Z,6.43
2019-03-19T12:31:32.905Z,5.27
2019-03-19T12:34:20.537Z,6.00
2019-03-19T12:37:08.271Z,6.27
2019-03-19T12:39:56.207Z,5.83
2019-03-19T12:42:43.558Z,7.30
2019-03-19T12:45:31.251Z,6.77
2019-03-19T12:48:18.923Z,7.40
2019-03-19T12:51:06.673Z,6.33
2019-03-19T12:53:54.277Z,9.63
2019-03-19T12:56:41.645Z,8.10
2019-03-19T12:59:29.387Z,6.87
2019-03-19T13:02:16.845Z,6.97
2019-03-19T13:05:05.211Z,5.13
2019-03-19T13:07:52.565Z,7.30
2019-03-19T13:10:40.109Z,9.47
2019-03-19T13:13:27.820Z,6.47
2019-03-19T13:16:15.446Z,5.80
2019-03-19T13:19:02.925Z,6.37
2019-03-19T13:21:50.386Z,5.30
2019-03-19T13:24:38.008Z,6.40
2019-03-19T13:27:25.538Z,7.23
2019-03-19T13:30:22.063Z,6.87
2019-03-19T13:33:09.617Z,6.77
2019-03-19T13:35:57.001Z,7.00
2019-03-19T13:38:44.813Z,6.17
2019-03-19T13:41:32.274Z,9.83
2019-03-19T13:44:19.769Z,4.60
2019-03-19T13:47:07.526Z,5.77
2019-03-19T13:49:55.305Z,3.93
2019-03-19T13:52:42.985Z,5.40
2019-03-19T13:55:30.661Z,5.40
2019-03-19T13:58:18.380Z,3.73
2019-03-19T14:01:05.746Z,5.77
2019-03-19T14:03:53.333Z,4.43
2019-03-19T14:06:40.818Z,6.57
2019-03-19T14:09:28.612Z,4.97
2019-03-19T14:12:16.149Z,6.57
2019-03-19T14:15:05.589Z,5.70
2019-03-19T14:17:53.204Z,5.50
2019-03-19T14:20:41.009Z,7.57
2019-03-19T14:23:28.618Z,6.10
2019-03-19T14:26:16.297Z,3.67
2019-03-19T14:29:03.918Z,6.87
2019-03-19T14:31:51.596Z,6.00
2019-03-19T14:34:39.372Z,5.13
2019-03-19T14:37:26.968Z,7.13
2019-03-19T14:40:24.461Z,4.77
2019-03-19T14:43:12.076Z,5.63
2019-03-19T14:45:59.530Z,8.40
2019-03-19T14:48:47.033Z,6.60
2019-03-19T14:51:34.637Z,6.17
2019-03-19T14:54:22.218Z,4.73
2019-03-19T14:57:09.894Z,5.70
2019-03-19T14:59:57.610Z,4.53
2019-03-19T15:02:45.023Z,6.30
2019-03-19T15:05:32.668Z,7.37
2019-03-19T15:08:20.154Z,5.63
2019-03-19T15:11:07.550Z,5.60
2019-03-19T15:13:55.400Z,4.00
2019-03-19T15:16:43.232Z,5.20
2019-03-19T15:19:30.732Z,7.47
2019-03-19T15:22:18.368Z,5.47
2019-03-19T15:25:07.853Z,5.07
2019-03-19T15:27:55.529Z,6.00
2019-03-19T15:30:43.020Z,6.67
2019-03-19T15:33:30.444Z,6.13
2019-03-19T15:36:18.021Z,6.53
2019-03-19T15:39:07.141Z,5.93
2019-03-19T15:41:54.695Z,5.30
2019-03-19T15:44:42.096Z,25.13
2019-03-19T15:47:29.713Z,7.90
2019-03-19T15:50:17.455Z,5.63
2019-03-19T15:53:05.054Z,7.27
2019-03-19T15:55:52.680Z,8.53
2019-03-19T15:58:40.576Z,5.97
2019-03-19T16:01:28.214Z,6.77
2019-03-19T16:04:15.573Z,5.27
2019-03-19T16:07:03.225Z,6.47
2019-03-19T16:09:50.686Z,6.57
2019-03-19T16:12:38.436Z,7.13
2019-03-19T16:15:25.821Z,6.77
2019-03-19T16:18:13.376Z,6.73
2019-03-19T16:21:00.805Z,6.07
2019-03-19T16:23:48.160Z,8.87
2019-03-19T16:26:35.565Z,5.60
2019-03-19T16:33:11.005Z,7.03
2019-03-19T16:35:58.617Z,8.70
2019-03-19T16:38:46.240Z,8.93
2019-03-19T16:41:33.846Z,6.27
2019-03-19T16:44:21.252Z,10.30
2019-03-19T16:47:08.781Z,6.90
2019-03-19T16:49:56.433Z,5.33
2019-03-19T16:52:43.969Z,9.27
2019-03-19T16:55:31.372Z,9.53
2019-03-19T16:58:18.937Z,11.03
2019-03-19T17:01:06.761Z,9.03
2019-03-19T17:03:54.171Z,30.30
2019-03-19T17:06:41.617Z,11.10
2019-03-19T17:09:29.000Z,14.77
2019-03-19T17:12:16.853Z,24.93
2019-03-19T17:15:07.383Z,12.63
2019-03-19T17:17:54.712Z,6.83
2019-03-19T17:20:42.400Z,7.03
2019-03-19T17:23:29.830Z,7.67
2019-03-19T17:26:17.458Z,10.33
2019-03-19T17:29:05.127Z,10.63
2019-03-19T17:31:52.764Z,10.10
2019-03-19T17:34:40.518Z,9.87
2019-03-19T17:37:28.269Z,12.43
2019-03-19T17:40:16.516Z,10.93
2019-03-19T17:43:03.976Z,10.73
2019-03-19T17:45:51.525Z,29.47
2019-03-19T17:48:38.973Z,14.73
2019-03-19T17:51:26.558Z,10.60
2019-03-19T17:54:14.284Z,9.00
2019-03-19T17:57:01.813Z,10.77
2019-03-19T17:59:49.170Z,7.07
2019-03-19T18:02:36.708Z,7.80
2019-03-19T18:05:24.304Z,9.40
2019-03-19T18:08:11.779Z,10.73
2019-03-19T18:10:59.333Z,7.20
2019-03-19T18:13:46.997Z,8.40
2019-03-19T18:16:34.692Z,9.07
2019-03-19T18:19:22.462Z,9.73
2019-03-19T18:22:09.893Z,7.70
2019-03-19T18:24:57.297Z,7.93
2019-03-19T18:27:44.997Z,9.37
2019-03-19T18:30:32.601Z,9.07
2019-03-19T18:33:19.988Z,12.83
2019-03-19T18:36:07.691Z,12.17
2019-03-19T18:38:55.085Z,17.87
2019-03-19T18:41:42.798Z,15.07
2019-03-19T18:44:30.257Z,14.53
2019-03-19T18:47:17.665Z,12.17
2019-03-19T18:50:11.112Z,13.37
2019-03-19T18:52:59.016Z,18.20
2019-03-19T18:55:46.558Z,13.60
2019-03-19T18:58:34.310Z,12.30
2019-03-19T19:01:22.030Z,12.73
2019-03-19T19:04:09.753Z,14.10
2019-03-19T19:06:57.469Z,13.50
2019-03-19T19:09:45.181Z,14.60
2019-03-19T19:12:32.809Z,13.03
2019-03-19T19:15:25.134Z,13.33
2019-03-19T19:18:12.868Z,14.70
2019-03-19T19:21:00.541Z,13.13
2019-03-19T19:23:48.100Z,18.17
2019-03-19T19:26:35.719Z,17.23
2019-03-19T19:29:24.122Z,13.80
2019-03-19T19:32:11.584Z,13.47
2019-03-19T19:34:59.381Z,18.23
2019-03-19T19:37:46.762Z,13.33
2019-03-19T19:40:34.325Z,11.43
2019-03-19T19:43:21.977Z,12.93
2019-03-19T19:46:09.680Z,13.47
2019-03-19T19:48:57.084Z,12.47
2019-03-19T19:51:44.643Z,15.73
2019-03-19T19:54:32.570Z,10.93
2019-03-19T19:57:20.293Z,15.37
2019-03-19T20:00:10.925Z,11.63
2019-03-19T20:02:59.257Z,10.82
2019-03-19T20:05:47.061Z,10.00
2019-03-19T20:08:34.987Z,16.30
2019-03-19T20:11:22.586Z,17.30
2019-03-19T20:14:10.229Z,13.57
2019-03-19T20:16:57.648Z,11.80
2019-03-19T20:19:45.259Z,14.53
2019-03-19T20:22:32.698Z,18.07
2019-03-19T20:25:20.217Z,14.57
2019-03-19T20:28:07.701Z,14.77
2019-03-19T20:30:55.276Z,15.23
2019-03-19T20:33:42.922Z,13.57
2019-03-19T20:36:30.654Z,12.70
2019-03-19T20:39:18.447Z,16.97
2019-03-19T20:42:06.107Z,10.33
2019-03-19T20:44:53.492Z,14.37
2019-03-19T20:47:41.189Z,12.37
2019-03-19T20:50:37.210Z,9.00
2019-03-19T20:53:24.770Z,16.40
2019-03-19T20:56:12.505Z,13.30
2019-03-19T20:59:00.025Z,13.13
2019-03-19T21:01:47.723Z,17.60
2019-03-19T21:04:35.201Z,10.70
2019-03-19T21:07:22.773Z,15.30
2019-03-19T21:10:13.510Z,16.13
2019-03-19T21:13:00.862Z,18.07
2019-03-19T21:15:48.577Z,18.80
2019-03-19T21:18:36.340Z,14.13
2019-03-19T21:21:24.055Z,17.70
2019-03-19T21:24:11.694Z,17.60
2019-03-19T21:26:59.254Z,15.07
2019-03-19T21:29:47.096Z,18.17
2019-03-19T21:32:34.717Z,17.23
2019-03-19T21:35:28.194Z,14.30
2019-03-19T21:38:16.538Z,14.70
2019-03-19T21:41:04.261Z,16.93
2019-03-19T21:43:51.682Z,16.23
2019-03-19T21:46:39.346Z,14.87
2019-03-19T21:49:26.964Z,14.90
2019-03-19T21:52:14.694Z,14.53
2019-03-19T21:55:02.366Z,17.37
2019-03-19T21:57:50.025Z,18.07
2019-03-19T22:00:37.696Z,16.67
2019-03-19T22:03:25.536Z,14.97
2019-03-19T22:06:13.264Z,18.37
2019-03-19T22:09:00.919Z,15.47
2019-03-19T22:11:48.755Z,18.42
2019-03-19T22:14:36.482Z,16.90
2019-03-19T22:17:23.921Z,14.33
2019-03-19T22:20:12.610Z,13.57
2019-03-19T22:23:00.293Z,15.37
2019-03-19T22:25:48.123Z,15.80
2019-03-19T22:28:35.624Z,16.93
2019-03-19T22:31:23.241Z,17.70
2019-03-19T22:34:14.252Z,12.80
2019-03-19T22:37:00.943Z,16.03
2019-03-19T22:39:48.431Z,16.03
2019-03-19T22:42:35.706Z,15.93
2019-03-19T22:45:23.519Z,18.77
2019-03-19T22:48:11.002Z,14.17
2019-03-19T22:50:58.407Z,17.53
2019-03-19T22:53:46.122Z,13.93
2019-03-19T22:56:34.148Z,16.60
2019-03-19T22:59:21.482Z,14.97
2019-03-19T23:02:09.246Z,19.43
2019-03-19T23:04:56.946Z,19.33
2019-03-19T23:07:44.719Z,12.20
2019-03-19T23:10:32.410Z,15.40
2019-03-19T23:13:19.802Z,16.33
2019-03-19T23:16:07.351Z,16.90
2019-03-19T23:18:55.188Z,16.80
2019-03-19T23:21:42.627Z,19.47
2019-03-19T23:24:30.361Z,14.13
2019-03-19T23:27:18.110Z,16.30
2019-03-19T23:30:08.812Z,14.93
2019-03-19T23:32:56.216Z,14.37
2019-03-19T23:35:44.346Z,16.17
2019-03-19T23:38:31.760Z,17.87
2019-03-19T23:41:20.479Z,15.30
2019-03-19T23:44:08.353Z,17.83
2019-03-19T23:47:00.865Z,15.13
2019-03-19T23:49:48.854Z,13.47
2019-03-19T23:52:36.544Z,14.67
2019-03-19T23:55:24.355Z,20.63
2019-03-19T23:58:12.099Z,19.57
